Time;durP1;ratioP1;P1;durP2;ratioP2;P2;SDS_P1;SDS_P2;PMS_P1;PMS_P2;Temp;Humidity;BMP_temperature;BMP_pressure;BME280_temperature;BME280_humidity;BME280_pressure;Samples;Min_cycle;Max_cycle;Signal;HPM_P1;HPM_P2
2021/06/02 00:00:11;;;;;;;4.05;2.28;;;18.40;78.40;;;;;;5033166;28;20033;-65
2021/06/02 00:02:49;;;;;;;3.88;2.50;;;18.30;78.50;;;;;;5033074;28;20499;-65
2021/06/02 00:05:16;;;;;;;4.85;2.58;;;18.30;78.80;;;;;;5033659;28;20044;-64
2021/06/02 00:07:43;;;;;;;3.80;1.92;;;18.30;78.70;;;;;;5050537;28;20123;-65
2021/06/02 00:10:11;;;;;;;4.38;2.13;;;18.30;79.10;;;;;;5033160;28;20040;-65
2021/06/02 00:12:38;;;;;;;2.80;2.00;;;18.30;79.20;;;;;;5050720;28;20470;-65
2021/06/02 00:15:06;;;;;;;3.53;2.10;;;18.30;79.30;;;;;;5033201;28;20060;-64
2021/06/02 00:17:31;;;;;;;2.75;2.05;;;18.30;79.60;;;;;;5050290;28;20041;-65
2021/06/02 00:19:57;;;;;;;3.53;2.15;;;18.30;79.20;;;;;;5050902;28;20025;-65
2021/06/02 00:22:23;;;;;;;2.70;1.85;;;18.30;79.20;;;;;;5051275;28;20074;-65
2021/06/02 00:24:49;;;;;;;4.32;1.80;;;18.30;79.50;;;;;;5050478;28;20029;-65
2021/06/02 00:27:15;;;;;;;3.13;2.13;;;18.20;79.10;;;;;;5050998;28;20032;-65
2021/06/02 00:29:44;;;;;;;2.78;2.10;;;18.20;79.20;;;;;;5032196;28;20419;-65
2021/06/02 00:32:11;;;;;;;6.68;2.10;;;18.10;79.70;;;;;;5032842;28;20545;-64
2021/06/02 00:34:37;;;;;;;4.63;2.05;;;18.00;79.90;;;;;;5050208;28;20421;-65
2021/06/02 00:37:06;;;;;;;15.75;2.42;;;18.00;80.90;;;;;;5032940;28;20033;-65
2021/06/02 00:39:32;;;;;;;3.42;1.70;;;18.00;80.50;;;;;;5050091;28;20029;-65
2021/06/02 00:41:59;;;;;;;3.47;1.83;;;18.00;80.40;;;;;;5050468;28;20489;-65
2021/06/02 00:44:25;;;;;;;3.50;2.50;;;17.90;80.60;;;;;;5050684;28;20033;-64
2021/06/02 00:46:51;;;;;;;3.42;2.38;;;17.80;81.10;;;;;;5049817;28;20170;-64
2021/06/02 00:49:25;;;;;;;2.50;2.05;;;17.80;81.60;;;;;;5051004;28;20415;-64
2021/06/02 00:51:58;;;;;;;5.35;2.45;;;17.70;81.30;;;;;;5031676;28;20099;-64
2021/06/02 00:54:26;;;;;;;3.67;2.10;;;17.60;81.90;;;;;;5032562;28;20173;-65
2021/06/02 00:57:19;;;;;;;2.42;2.22;;;17.60;82.10;;;;;;5049924;28;20532;-65
2021/06/02 01:00:06;;;;;;;5.40;2.20;;;17.60;82.30;;;;;;5049663;28;20345;-64
2021/06/02 01:02:34;;;;;;;2.80;1.70;;;17.60;82.10;;;;;;5049941;28;20035;-64
2021/06/02 01:05:00;;;;;;;4.70;2.28;;;17.60;82.00;;;;;;5050658;28;20024;-64
2021/06/02 01:07:26;;;;;;;2.85;2.35;;;17.60;82.20;;;;;;5032505;28;20166;-64
2021/06/02 01:09:56;;;;;;;3.20;1.80;;;17.60;82.30;;;;;;5049841;28;20064;-64
2021/06/02 01:12:24;;;;;;;4.70;2.20;;;17.60;82.30;;;;;;5032389;28;20029;-63
2021/06/02 01:14:51;;;;;;;2.92;1.92;;;17.60;82.20;;;;;;5031694;28;20029;-63
2021/06/02 01:17:19;;;;;;;2.20;2.00;;;17.50;82.50;;;;;;5050159;28;20025;-63
2021/06/02 01:19:45;;;;;;;3.08;2.40;;;17.50;82.80;;;;;;5049470;28;20128;-64
2021/06/02 01:22:11;;;;;;;5.75;2.33;;;17.50;83.40;;;;;;5049892;28;20041;-64
2021/06/02 01:24:38;;;;;;;2.85;2.15;;;17.50;83.30;;;;;;5049932;28;20022;-64
2021/06/02 01:27:07;;;;;;;3.58;1.80;;;17.50;83.10;;;;;;5049888;28;20501;-63
2021/06/02 01:29:34;;;;;;;2.95;2.05;;;17.50;83.10;;;;;;5049554;28;20473;-70
2021/06/02 01:32:17;;;;;;;4.72;2.15;;;17.40;82.90;;;;;;5050084;28;20335;-63
2021/06/02 01:35:20;;;;;;;2.95;1.92;;;17.40;83.50;;;;;;5049752;28;20040;-64
2021/06/02 01:38:10;;;;;;;4.35;2.03;;;17.30;83.70;;;;;;5031293;28;20573;-63
2021/06/02 01:41:14;;;;;;;2.92;2.50;;;17.30;83.70;;;;;;5031148;28;20048;-63
2021/06/02 01:43:46;;;;;;;4.88;1.92;;;17.30;84.00;;;;;;5049809;28;20033;-63
2021/06/02 01:46:33;;;;;;;5.43;2.60;;;17.30;84.50;;;;;;5050045;28;20106;-63
2021/06/02 01:49:17;;;;;;;4.28;2.08;;;17.30;84.60;;;;;;5049760;28;20477;-64
2021/06/02 01:52:10;;;;;;;10.95;2.47;;;17.30;84.60;;;;;;5049135;28;20111;-64
2021/06/02 01:54:55;;;;;;;2.25;2.05;;;17.20;84.70;;;;;;5031507;28;20033;-63
2021/06/02 01:57:36;;;;;;;4.43;2.30;;;17.30;84.90;;;;;;5050458;28;20036;-64
2021/06/02 02:00:10;;;;;;;3.22;1.67;;;17.20;85.10;;;;;;5062718;28;20469;-63
2021/06/02 02:02:51;;;;;;;3.47;2.40;;;17.20;85.20;;;;;;5073805;28;20033;-64
2021/06/02 02:05:35;;;;;;;4.05;2.17;;;17.20;85.80;;;;;;5074699;28;20025;-63
2021/06/02 02:08:41;;;;;;;3.50;2.47;;;17.20;85.80;;;;;;5073644;28;20086;-64
2021/06/02 02:11:30;;;;;;;4.85;1.92;;;17.20;86.00;;;;;;5055639;28;20028;-63
2021/06/02 02:14:01;;;;;;;3.75;2.65;;;17.00;86.50;;;;;;5072738;28;20033;-63
2021/06/02 02:17:18;;;;;;;2.85;2.38;;;17.00;86.80;;;;;;5073854;28;20024;-63
2021/06/02 02:20:01;;;;;;;3.30;2.47;;;16.80;87.40;;;;;;5054432;28;20067;-63
2021/06/02 02:22:54;;;;;;;3.70;2.22;;;16.90;87.10;;;;;;5055245;28;20037;-63
2021/06/02 02:25:34;;;;;;;2.97;2.13;;;16.90;87.50;;;;;;5055112;28;20101;-63
2021/06/02 02:28:08;;;;;;;3.38;2.70;;;16.90;87.60;;;;;;5072827;28;20041;-63
2021/06/02 02:30:36;;;;;;;2.30;2.10;;;16.90;87.80;;;;;;5054835;28;20021;-63
2021/06/02 02:33:13;;;;;;;3.70;2.88;;;16.90;88.20;;;;;;5055016;28;20128;-63
2021/06/02 02:35:57;;;;;;;4.65;2.20;;;16.90;88.30;;;;;;5071956;28;20474;-63
2021/06/02 02:38:41;;;;;;;4.65;2.65;;;16.90;88.10;;;;;;5073014;28;20020;-63
2021/06/02 02:41:29;;;;;;;4.57;2.40;;;16.90;88.20;;;;;;5072934;28;20115;-63
2021/06/02 02:44:05;;;;;;;3.80;2.90;;;16.90;88.40;;;;;;5072292;28;20154;-64
2021/06/02 02:46:43;;;;;;;3.15;2.05;;;16.90;88.30;;;;;;5072853;28;20024;-63
2021/06/02 02:49:13;;;;;;;2.83;2.40;;;16.90;88.40;;;;;;5072614;28;20096;-63
2021/06/02 02:52:16;;;;;;;4.05;3.10;;;16.80;88.40;;;;;;5072144;28;20056;-63
2021/06/02 02:54:49;;;;;;;4.28;3.08;;;16.70;88.30;;;;;;5072217;28;20040;-64
2021/06/02 02:57:44;;;;;;;3.35;2.67;;;16.80;88.50;;;;;;5072821;28;20052;-64
2021/06/02 03:00:15;;;;;;;4.07;2.30;;;16.70;88.70;;;;;;5054669;28;20548;-64
2021/06/02 03:02:59;;;;;;;4.15;2.00;;;16.70;89.10;;;;;;5072024;28;20085;-63
2021/06/02 03:05:29;;;;;;;2.92;2.20;;;16.70;89.20;;;;;;5072257;28;20479;-63
2021/06/02 03:08:17;;;;;;;4.63;2.60;;;16.70;89.10;;;;;;5072151;28;20499;-63
2021/06/02 03:11:01;;;;;;;2.92;2.22;;;16.80;88.50;;;;;;5071813;28;20127;-63
2021/06/02 03:13:36;;;;;;;5.45;2.30;;;16.70;88.90;;;;;;5072516;28;20033;-63
2021/06/02 03:16:09;;;;;;;3.10;2.20;;;16.70;89.10;;;;;;5071658;28;20028;-63
2021/06/02 03:18:51;;;;;;;2.72;2.20;;;16.60;89.10;;;;;;5072146;28;20108;-63
2021/06/02 03:21:47;;;;;;;5.00;2.40;;;16.50;89.10;;;;;;5071873;28;20021;-63
2021/06/02 03:24:23;;;;;;;3.25;2.75;;;16.60;89.60;;;;;;5053477;28;20521;-64
2021/06/02 03:27:06;;;;;;;2.95;2.70;;;16.60;89.60;;;;;;5071999;28;20028;-64
2021/06/02 03:29:44;;;;;;;4.03;2.35;;;16.60;90.10;;;;;;5054172;28;20024;-64
2021/06/02 03:32:31;;;;;;;3.10;2.53;;;16.50;89.40;;;;;;5072168;28;20381;-64
2021/06/02 03:35:20;;;;;;;3.22;2.38;;;16.50;90.00;;;;;;5071249;28;20040;-62
2021/06/02 03:38:13;;;;;;;2.83;2.30;;;16.40;90.10;;;;;;5071688;28;20112;-64
2021/06/02 03:40:57;;;;;;;3.67;2.30;;;16.30;90.10;;;;;;5071830;28;20087;-63
2021/06/02 03:43:28;;;;;;;3.53;2.67;;;16.30;90.10;;;;;;5071738;28;20025;-63
2021/06/02 03:46:05;;;;;;;9.43;3.27;;;16.30;90.30;;;;;;5053060;28;20024;-63
2021/06/02 03:48:53;;;;;;;4.70;2.67;;;16.30;90.20;;;;;;5053617;28;20047;-62
2021/06/02 03:51:35;;;;;;;5.65;3.38;;;16.40;90.20;;;;;;5071069;28;20052;-63
2021/06/02 03:54:11;;;;;;;3.50;2.30;;;16.40;90.20;;;;;;5070761;28;20040;-63
2021/06/02 03:56:53;;;;;;;3.75;2.88;;;16.30;90.10;;;;;;5071188;28;20054;-64
2021/06/02 03:59:58;;;;;;;7.20;3.78;;;16.30;90.20;;;;;;5053333;28;20370;-63
2021/06/02 04:02:33;;;;;;;4.93;2.50;;;16.30;90.30;;;;;;5071304;28;20032;-63
2021/06/02 04:05:06;;;;;;;3.65;2.63;;;16.30;90.20;;;;;;5070389;28;20059;-63
2021/06/02 04:07:41;;;;;;;6.25;2.30;;;16.30;90.30;;;;;;5053373;28;20111;-63
2021/06/02 04:10:08;;;;;;;5.00;2.80;;;16.40;90.10;;;;;;5070731;28;20148;-63
2021/06/02 04:12:58;;;;;;;5.65;2.90;;;16.50;90.20;;;;;;5053043;28;20426;-63
2021/06/02 04:15:24;;;;;;;3.55;2.63;;;16.60;90.10;;;;;;5052610;28;20085;-63
2021/06/02 04:17:51;;;;;;;3.38;2.55;;;16.60;90.00;;;;;;5070389;28;20020;-63
2021/06/02 04:20:19;;;;;;;6.07;2.60;;;16.60;89.30;;;;;;5070392;28;20025;-63
2021/06/02 04:22:49;;;;;;;4.82;3.00;;;16.70;89.20;;;;;;5069997;28;20117;-63
2021/06/02 04:25:17;;;;;;;6.32;2.83;;;16.70;89.20;;;;;;5070653;28;20032;-64
2021/06/02 04:27:46;;;;;;;4.38;2.65;;;16.60;89.70;;;;;;5070168;28;20071;-73
2021/06/02 04:30:14;;;;;;;4.40;3.42;;;16.60;89.80;;;;;;5052259;28;20119;-63
2021/06/02 04:32:47;;;;;;;5.90;2.95;;;16.70;89.40;;;;;;5070331;28;20085;-64
2021/06/02 04:35:16;;;;;;;5.25;2.30;;;16.70;89.40;;;;;;5070594;28;20033;-64
2021/06/02 04:37:43;;;;;;;5.88;3.22;;;16.80;89.60;;;;;;5070444;28;20020;-63
2021/06/02 04:40:09;;;;;;;5.15;3.15;;;16.90;88.90;;;;;;5070791;28;20067;-63
2021/06/02 04:42:40;;;;;;;4.82;3.40;;;16.90;87.90;;;;;;5070137;28;20106;-64
2021/06/02 04:45:08;;;;;;;4.65;2.95;;;16.90;87.70;;;;;;5069905;28;20036;-63
2021/06/02 04:47:35;;;;;;;6.13;3.10;;;17.00;86.80;;;;;;5051736;28;20085;-63
2021/06/02 04:50:13;;;;;;;4.80;3.00;;;16.90;87.00;;;;;;5069549;28;20120;-63
2021/06/02 04:52:57;;;;;;;6.00;3.35;;;17.00;87.10;;;;;;5052182;28;20060;-64
2021/06/02 04:55:48;;;;;;;6.85;3.97;;;17.20;85.20;;;;;;5069852;28;20086;-63
2021/06/02 04:58:28;;;;;;;5.50;2.90;;;17.20;84.80;;;;;;5070133;28;20032;-63
2021/06/02 05:00:57;;;;;;;7.93;3.30;;;17.30;84.30;;;;;;5069180;28;20036;-65
2021/06/02 05:03:56;;;;;;;8.18;3.72;;;17.30;83.90;;;;;;5070044;28;20040;-64
2021/06/02 05:06:54;;;;;;;6.47;2.88;;;17.30;84.30;;;;;;5069625;28;20476;-63
2021/06/02 05:09:47;;;;;;;7.60;3.00;;;17.20;83.80;;;;;;5069733;28;20029;-63
2021/06/02 05:12:32;;;;;;;6.47;3.00;;;17.10;84.70;;;;;;5051033;28;20055;-64
2021/06/02 05:15:16;;;;;;;10.88;4.38;;;17.20;85.50;;;;;;5068784;28;20029;-64
2021/06/02 05:18:08;;;;;;;7.72;3.78;;;17.20;85.10;;;;;;5051651;28;20021;-63
2021/06/02 05:23:56;;;;;;;8.13;3.70;;;17.00;85.00;;;;;;5069608;28;20040;-64
2021/06/02 05:27:00;;;;;;;6.30;3.10;;;16.80;86.30;;;;;;5069735;28;20028;-65
2021/06/02 05:29:58;;;;;;;15.95;3.60;;;17.10;89.10;;;;;;5069264;28;20090;-63
2021/06/02 05:32:33;;;;;;;6.57;2.38;;;17.60;89.00;;;;;;5064929;28;20040;-55
2021/06/02 05:35:32;;;;;;;8.27;2.20;;;18.20;90.30;;;;;;5067493;28;20430;-54
2021/06/02 05:38:39;;;;;;;7.90;2.53;;;19.10;86.80;;;;;;5073028;28;20111;-63
2021/06/02 05:41:17;;;;;;;8.20;2.92;;;19.10;83.30;;;;;;5072125;28;20028;-52
2021/06/02 05:44:20;;;;;;;4.05;1.88;;;19.50;83.20;;;;;;5072557;28;20413;-53
2021/06/02 05:47:23;;;;;;;8.90;2.65;;;19.70;81.20;;;;;;5072761;28;20029;-54
2021/06/02 05:50:19;;;;;;;4.45;2.42;;;19.60;79.20;;;;;;5073491;28;20035;-52
2021/06/02 05:53:02;;;;;;;6.55;2.53;;;19.80;80.30;;;;;;5073483;28;20091;-52
2021/06/02 05:55:43;;;;;;;15.30;2.47;;;20.10;79.20;;;;;;5071914;28;20040;-53
2021/06/02 05:58:43;;;;;;;5.38;2.78;;;20.10;78.10;;;;;;5053634;28;20058;-50
2021/06/02 06:01:33;;;;;;;5.43;2.58;;;19.60;77.50;;;;;;5072086;28;20539;-51
2021/06/02 06:04:29;;;;;;;8.57;2.25;;;19.50;76.40;;;;;;5054169;28;20090;-52
2021/06/02 06:07:29;;;;;;;9.23;2.30;;;19.50;81.20;;;;;;5071716;28;20021;-51
2021/06/02 06:10:34;;;;;;;7.60;2.72;;;20.10;78.10;;;;;;5053862;28;20539;-53
2021/06/02 06:13:17;;;;;;;4.65;2.22;;;20.30;76.20;;;;;;5053245;28;20048;-52
2021/06/02 06:16:07;;;;;;;5.45;2.90;;;20.50;75.00;;;;;;5072755;28;20146;-54
2021/06/02 06:18:52;;;;;;;4.55;2.35;;;20.50;75.50;;;;;;5054134;28;20042;-53
2021/06/02 06:21:36;;;;;;;4.15;2.55;;;20.60;75.00;;;;;;5072678;28;20060;-52
2021/06/02 06:24:23;;;;;;;7.22;2.40;;;20.70;74.60;;;;;;5072118;28;20036;-52
2021/06/02 06:27:03;;;;;;;3.92;2.33;;;20.80;74.20;;;;;;5053447;28;20033;-57
2021/06/02 06:29:33;;;;;;;3.10;2.13;;;20.80;74.10;;;;;;5072318;28;20214;-53
2021/06/02 06:32:01;;;;;;;11.75;2.60;;;20.90;73.80;;;;;;5071183;28;20032;-51
2021/06/02 06:34:32;;;;;;;3.25;2.47;;;21.00;73.40;;;;;;5071817;28;20048;-53
2021/06/02 06:37:00;;;;;;;4.55;2.40;;;21.10;72.20;;;;;;5053249;28;20028;-52
2021/06/02 06:39:34;;;;;;;4.25;2.28;;;21.10;71.80;;;;;;5053736;28;20032;-52
2021/06/02 06:42:00;;;;;;;6.90;2.80;;;21.10;72.90;;;;;;5052958;28;20421;-54
2021/06/02 06:44:33;;;;;;;11.75;3.10;;;21.10;72.50;;;;;;5053322;28;20032;-63
2021/06/02 06:47:01;;;;;;;8.10;3.10;;;20.50;70.70;;;;;;5053116;28;20092;-67
2021/06/02 06:49:29;;;;;;;6.05;2.53;;;20.20;72.00;;;;;;5053726;28;20066;-66
2021/06/02 06:51:55;;;;;;;5.07;3.13;;;20.10;72.20;;;;;;5071319;28;20120;-65
2021/06/02 06:54:23;;;;;;;4.00;2.63;;;19.60;73.10;;;;;;5072345;28;20056;-65
2021/06/02 06:56:50;;;;;;;8.15;3.35;;;19.80;73.30;;;;;;5072022;28;20024;-66
2021/06/02 06:59:18;;;;;;;7.43;3.45;;;19.70;74.00;;;;;;5071595;28;20128;-66
2021/06/02 07:01:44;;;;;;;8.02;3.72;;;19.60;73.30;;;;;;5071968;28;20060;-66
2021/06/02 07:04:11;;;;;;;5.85;2.83;;;19.60;73.20;;;;;;5053044;28;20119;-66
2021/06/02 07:06:37;;;;;;;25.92;6.15;;;19.40;75.10;;;;;;5054137;28;20035;-67
2021/06/02 07:09:07;;;;;;;6.40;3.20;;;19.70;75.00;;;;;;5053372;28;20124;-65
2021/06/02 07:11:39;;;;;;;6.32;3.20;;;19.80;74.80;;;;;;5054204;28;20067;-66
2021/06/02 07:14:06;;;;;;;7.80;2.88;;;20.00;75.20;;;;;;5071606;28;20140;-67
2021/06/02 07:16:36;;;;;;;13.05;3.45;;;20.10;75.10;;;;;;5071662;28;20036;-67
2021/06/02 07:19:02;;;;;;;6.85;3.10;;;20.20;74.50;;;;;;5052936;28;20032;-68
2021/06/02 07:21:29;;;;;;;6.65;2.67;;;20.30;73.10;;;;;;5052420;28;20155;-67
2021/06/02 07:23:56;;;;;;;2.80;2.45;;;20.20;72.70;;;;;;5070664;28;20509;-66
2021/06/02 07:26:22;;;;;;;4.75;2.97;;;20.10;73.40;;;;;;5070880;28;20461;-67
2021/06/02 07:28:48;;;;;;;5.97;2.85;;;20.30;73.50;;;;;;5052594;28;20021;-67
2021/06/02 07:31:14;;;;;;;10.00;3.95;;;20.50;73.40;;;;;;5070114;28;20076;-67
2021/06/02 07:33:40;;;;;;;6.03;3.30;;;20.50;73.40;;;;;;5053266;28;20127;-66
2021/06/02 07:36:08;;;;;;;8.18;2.42;;;20.50;71.80;;;;;;5070944;28;20033;-66
2021/06/02 07:38:33;;;;;;;10.48;2.90;;;20.60;72.30;;;;;;5071555;28;20028;-66
2021/06/02 07:40:59;;;;;;;8.25;2.78;;;20.60;72.90;;;;;;5070189;28;20482;-68
2021/06/02 07:43:25;;;;;;;7.80;2.53;;;20.90;72.60;;;;;;5052783;28;20032;-66
2021/06/02 07:45:50;;;;;;;5.88;3.00;;;21.00;72.90;;;;;;5052893;28;20059;-66
2021/06/02 07:48:16;;;;;;;3.53;2.35;;;21.00;72.10;;;;;;5051826;28;20032;-67
2021/06/02 07:50:43;;;;;;;7.28;2.30;;;21.10;72.90;;;;;;5052248;28;20136;-64
2021/06/02 07:53:08;;;;;;;18.42;3.10;;;21.40;72.10;;;;;;5069540;28;20028;-66
2021/06/02 07:55:35;;;;;;;4.97;2.65;;;21.40;71.90;;;;;;5051769;28;20123;-66
2021/06/02 07:58:00;;;;;;;6.75;3.22;;;21.50;70.80;;;;;;5052131;28;20025;-66
2021/06/02 08:00:26;;;;;;;4.57;2.40;;;21.10;72.20;;;;;;5053015;28;20488;-66
2021/06/02 08:02:52;;;;;;;5.10;2.90;;;21.50;72.70;;;;;;5070708;28;20028;-67
2021/06/02 08:05:18;;;;;;;9.02;2.42;;;21.90;69.80;;;;;;5070063;28;20028;-66
2021/06/02 08:07:45;;;;;;;11.70;2.65;;;21.60;70.50;;;;;;5052870;28;20051;-67
2021/06/02 08:10:12;;;;;;;5.20;2.42;;;21.80;70.10;;;;;;5051978;28;20060;-66
2021/06/02 08:12:38;;;;;;;4.93;2.78;;;21.80;70.30;;;;;;5070574;28;20128;-67
2021/06/02 08:15:07;;;;;;;3.45;2.15;;;21.80;70.60;;;;;;5051876;28;20031;-66
2021/06/02 08:17:33;;;;;;;3.50;2.08;;;21.80;70.10;;;;;;5052536;28;20024;-65
2021/06/02 08:19:59;;;;;;;4.47;2.22;;;22.20;70.40;;;;;;5069591;28;20028;-66
2021/06/02 08:22:25;;;;;;;3.25;2.47;;;22.50;68.80;;;;;;5069828;28;20032;-67
2021/06/02 08:24:50;;;;;;;5.75;2.00;;;22.40;69.50;;;;;;5070364;28;20484;-66
2021/06/02 08:27:16;;;;;;;5.70;2.35;;;22.40;67.50;;;;;;5051238;28;20056;-67
2021/06/02 08:29:42;;;;;;;5.57;2.47;;;22.60;68.40;;;;;;5070187;28;20060;-66
2021/06/02 08:32:08;;;;;;;8.63;2.55;;;22.90;68.30;;;;;;5051195;28;20055;-67
2021/06/02 08:34:33;;;;;;;5.88;1.88;;;23.30;66.00;;;;;;5052069;28;20051;-66
2021/06/02 08:36:59;;;;;;;5.47;2.28;;;23.50;66.60;;;;;;5069889;28;20370;-66
2021/06/02 08:39:25;;;;;;;4.28;2.15;;;24.10;65.70;;;;;;5051747;28;20025;-66
2021/06/02 08:41:52;;;;;;;3.75;2.60;;;24.00;65.30;;;;;;5034937;28;20033;-66
2021/06/02 08:44:20;;;;;;;4.50;1.83;;;24.30;63.30;;;;;;5069283;28;20020;-66
2021/06/02 08:46:47;;;;;;;7.22;2.30;;;24.30;62.70;;;;;;5070033;28;20067;-66
2021/06/02 08:49:17;;;;;;;6.90;2.05;;;24.70;60.70;;;;;;5068984;28;20056;-66
2021/06/02 08:51:43;;;;;;;8.65;1.85;;;25.10;61.20;;;;;;5069234;28;20052;-65
2021/06/02 08:54:10;;;;;;;3.47;1.60;;;24.90;59.80;;;;;;5051141;28;20079;-66
2021/06/02 08:56:44;;;;;;;3.33;2.17;;;25.30;59.20;;;;;;5069820;28;20385;-66
2021/06/02 08:59:10;;;;;;;9.32;1.67;;;25.30;59.80;;;;;;5050991;28;20028;-67
2021/06/02 09:01:36;;;;;;;8.95;2.60;;;25.20;59.00;;;;;;5069729;28;20347;-66
2021/06/02 09:04:09;;;;;;;3.00;1.75;;;25.50;58.40;;;;;;5051374;28;20537;-65
2021/06/02 09:06:47;;;;;;;2.83;1.63;;;25.10;56.90;;;;;;5051533;28;20434;-66
2021/06/02 09:09:15;;;;;;;5.20;1.77;;;24.90;57.50;;;;;;5053026;28;20113;-67
2021/06/02 09:11:49;;;;;;;3.13;1.70;;;25.20;57.20;;;;;;5069926;28;20036;-67
2021/06/02 09:14:37;;;;;;;5.15;1.50;;;25.60;57.90;;;;;;5068936;28;20433;-67
2021/06/02 09:17:15;;;;;;;4.57;1.77;;;26.10;56.40;;;;;;5070297;28;20035;-67
2021/06/02 09:19:47;;;;;;;3.40;1.60;;;25.50;56.00;;;;;;5070282;28;20036;-67
2021/06/02 09:22:34;;;;;;;8.35;2.47;;;25.00;56.80;;;;;;5070431;28;20028;-67
2021/06/02 09:25:02;;;;;;;3.25;1.58;;;25.50;57.10;;;;;;5051500;28;20109;-73
2021/06/02 09:28:00;;;;;;;10.82;1.95;;;25.60;54.30;;;;;;5070101;28;20082;-66
2021/06/02 09:30:39;;;;;;;6.78;1.83;;;25.80;54.70;;;;;;5052056;28;20032;-67
2021/06/02 09:33:05;;;;;;;1.52;1.17;;;25.90;54.50;;;;;;5051695;28;20033;-67
2021/06/02 09:35:41;;;;;;;5.85;1.45;;;25.20;53.70;;;;;;5070269;28;20083;-66
2021/06/02 09:38:21;;;;;;;5.72;1.95;;;25.60;53.90;;;;;;5051170;28;20025;-67
2021/06/02 09:40:52;;;;;;;3.30;1.30;;;25.40;52.40;;;;;;5069723;28;20032;-67
2021/06/02 09:43:32;;;;;;;4.80;1.45;;;25.10;53.10;;;;;;5051183;28;20036;-67
2021/06/02 09:46:06;;;;;;;4.72;1.33;;;25.00;54.00;;;;;;5051598;28;20025;-66
2021/06/02 09:48:51;;;;;;;6.13;1.50;;;24.90;53.70;;;;;;5069076;28;20032;-68
2021/06/02 09:51:37;;;;;;;7.93;1.65;;;25.50;53.50;;;;;;5069266;28;20083;-66
2021/06/02 09:54:08;;;;;;;1.48;1.08;;;26.10;52.70;;;;;;5050050;28;20406;-66
2021/06/02 09:56:42;;;;;;;2.05;1.77;;;26.00;52.80;;;;;;5069149;28;20119;-67
2021/06/02 09:59:09;;;;;;;5.55;1.90;;;26.10;52.00;;;;;;5050465;28;20035;-67
2021/06/02 10:01:55;;;;;;;3.90;1.73;;;25.80;52.00;;;;;;5069118;28;20048;-66
2021/06/02 10:04:41;;;;;;;4.43;1.27;;;25.80;51.60;;;;;;5050709;28;20075;-67
2021/06/02 10:07:19;;;;;;;3.00;1.40;;;26.40;51.30;;;;;;5050342;28;20033;-66
2021/06/02 10:09:45;;;;;;;1.58;1.08;;;26.10;51.40;;;;;;5069034;28;20437;-68
2021/06/02 10:12:11;;;;;;;4.72;2.10;;;26.20;51.90;;;;;;5067604;28;20111;-54
2021/06/02 10:14:38;;;;;;;3.85;1.20;;;26.50;52.40;;;;;;5068325;28;20130;-67
2021/06/02 10:17:04;;;;;;;5.18;1.38;;;26.60;51.10;;;;;;5049920;28;20504;-69
2021/06/02 10:19:48;;;;;;;4.78;1.52;;;26.70;52.20;;;;;;5071115;28;20104;-69
2021/06/02 10:22:27;;;;;;;2.72;1.40;;;26.20;51.20;;;;;;5073136;28;20078;-68
2021/06/02 10:24:55;;;;;;;7.32;1.65;;;26.60;51.50;;;;;;5053906;28;20421;-70
2021/06/02 10:27:21;;;;;;;3.17;1.30;;;26.60;51.30;;;;;;5071128;28;20111;-69
2021/06/02 10:29:49;;;;;;;4.15;1.48;;;26.50;51.10;;;;;;5072514;28;20103;-69
2021/06/02 10:32:16;;;;;;;3.47;1.50;;;26.30;50.90;;;;;;5052010;28;20116;-68
2021/06/02 10:34:42;;;;;;;5.80;1.30;;;26.10;51.80;;;;;;5053068;28;20131;-69
2021/06/02 10:37:12;;;;;;;4.03;1.52;;;26.10;51.80;;;;;;5071573;28;20104;-69
2021/06/02 10:39:40;;;;;;;4.00;1.80;;;26.30;52.10;;;;;;5053760;28;20024;-68
2021/06/02 10:42:29;;;;;;;7.15;1.13;;;26.70;51.60;;;;;;5053186;28;20383;-69
2021/06/02 10:45:05;;;;;;;3.72;1.30;;;26.90;51.10;;;;;;5042350;28;20068;-69
2021/06/02 10:47:31;;;;;;;1.63;1.20;;;26.80;50.80;;;;;;5071657;28;20086;-69
2021/06/02 10:49:56;;;;;;;2.05;1.17;;;26.60;50.30;;;;;;5053660;28;20024;-69
2021/06/02 10:52:40;;;;;;;4.45;1.77;;;26.70;50.70;;;;;;5070754;28;20076;-69
2021/06/02 10:55:36;;;;;;;1.17;1.05;;;26.70;50.50;;;;;;5052518;28;20033;-71
2021/06/02 10:58:23;;;;;;;5.00;1.30;;;26.80;51.50;;;;;;5052969;28;20021;-70
2021/06/02 11:01:14;;;;;;;4.95;1.20;;;26.90;49.30;;;;;;5071335;28;20350;-68
2021/06/02 11:03:44;;;;;;;2.75;1.35;;;26.40;49.60;;;;;;5064148;28;20039;-68
2021/06/02 11:06:15;;;;;;;1.58;1.20;;;26.20;50.30;;;;;;5071485;28;20117;-67
2021/06/02 11:09:06;;;;;;;7.35;1.20;;;26.20;49.80;;;;;;5071349;28;20025;-68
2021/06/02 11:11:46;;;;;;;2.05;1.27;;;26.50;50.30;;;;;;5053465;28;20020;-68
2021/06/02 11:14:14;;;;;;;2.78;1.30;;;26.40;49.80;;;;;;5071361;28;20089;-68
2021/06/02 11:16:45;;;;;;;2.97;1.20;;;26.20;50.30;;;;;;5071458;28;20047;-67
2021/06/02 11:19:16;;;;;;;4.30;1.10;;;26.40;49.30;;;;;;5052845;28;20442;-69
2021/06/02 11:21:53;;;;;;;4.35;1.80;;;26.30;49.80;;;;;;5052745;28;20081;-67
2021/06/02 11:24:34;;;;;;;1.17;1.05;;;26.40;49.40;;;;;;5051003;28;20085;-68
2021/06/02 11:27:12;;;;;;;4.47;1.38;;;26.20;48.90;;;;;;5052134;28;20029;-68
2021/06/02 11:29:50;;;;;;;1.60;1.02;;;26.40;49.30;;;;;;5052655;28;20043;-68
2021/06/02 11:32:32;;;;;;;4.50;1.50;;;27.10;50.00;;;;;;5070024;28;20323;-69
2021/06/02 11:35:05;;;;;;;7.85;1.33;;;27.30;48.70;;;;;;5070667;28;20031;-70
2021/06/02 11:37:35;;;;;;;3.90;1.40;;;27.30;48.80;;;;;;5052240;28;20055;-69
2021/06/02 11:40:02;;;;;;;2.13;0.82;;;27.50;48.60;;;;;;5052675;28;20163;-69
2021/06/02 11:42:30;;;;;;;2.42;1.65;;;27.80;47.40;;;;;;5070089;28;20060;-69
2021/06/02 11:44:57;;;;;;;2.78;1.58;;;28.00;47.90;;;;;;5052314;28;20097;-68
2021/06/02 11:47:24;;;;;;;1.90;1.30;;;27.40;47.40;;;;;;5070410;28;20079;-68
2021/06/02 11:49:50;;;;;;;1.52;1.17;;;27.10;47.80;;;;;;5052658;28;20024;-68
2021/06/02 11:52:17;;;;;;;2.05;1.30;;;27.20;47.00;;;;;;5069647;28;20500;-68
2021/06/02 11:54:46;;;;;;;1.80;1.30;;;27.00;47.60;;;;;;5070727;28;20106;-69
2021/06/02 11:57:28;;;;;;;2.92;1.33;;;27.30;48.50;;;;;;5052146;28;20025;-69
2021/06/02 11:59:55;;;;;;;3.28;0.95;;;27.80;47.70;;;;;;5054598;28;20056;-69
2021/06/02 12:02:21;;;;;;;1.88;1.08;;;28.00;46.80;;;;;;5053567;28;20032;-69
2021/06/02 12:04:47;;;;;;;1.52;1.00;;;28.20;47.20;;;;;;5054604;28;20020;-69
2021/06/02 12:07:27;;;;;;;4.82;1.50;;;28.60;47.70;;;;;;5072121;28;20153;-70
2021/06/02 12:09:55;;;;;;;2.90;1.10;;;28.40;47.60;;;;;;5072801;28;20035;-69
2021/06/02 12:12:22;;;;;;;1.90;0.80;;;28.20;46.20;;;;;;5071864;28;20094;-69
2021/06/02 12:14:52;;;;;;;4.28;0.98;;;27.60;46.70;;;;;;5069690;28;20108;-70
2021/06/02 12:17:18;;;;;;;1.88;1.00;;;27.70;46.80;;;;;;5068961;28;20116;-69
2021/06/02 12:19:46;;;;;;;3.40;1.20;;;27.70;47.20;;;;;;5069620;28;20032;-68
2021/06/02 12:22:19;;;;;;;1.92;1.15;;;27.50;47.20;;;;;;5050734;28;20031;-70
2021/06/02 12:24:59;;;;;;;2.55;1.42;;;27.10;47.80;;;;;;5069886;28;20467;-68
2021/06/02 12:27:25;;;;;;;5.37;1.27;;;27.20;47.80;;;;;;5050447;28;20051;-68
2021/06/02 12:30:02;;;;;;;3.40;1.50;;;27.70;48.70;;;;;;5069628;28;20051;-69
2021/06/02 12:32:27;;;;;;;3.35;1.10;;;28.10;47.60;;;;;;5051059;28;20036;-69
2021/06/02 12:34:53;;;;;;;5.57;1.70;;;28.20;48.00;;;;;;5069928;28;20441;-68
2021/06/02 12:37:19;;;;;;;3.83;1.20;;;28.50;46.60;;;;;;5069550;28;20473;-69
2021/06/02 12:39:45;;;;;;;4.07;1.33;;;28.80;47.10;;;;;;5070338;28;20056;-68
2021/06/02 12:42:12;;;;;;;2.58;1.15;;;29.00;46.30;;;;;;5068698;28;20032;-69
2021/06/02 12:44:40;;;;;;;4.50;1.42;;;28.60;47.10;;;;;;5051115;28;20031;-68
2021/06/02 12:47:11;;;;;;;2.72;1.17;;;28.30;47.50;;;;;;5069619;28;20025;-69
2021/06/02 12:49:42;;;;;;;1.48;1.38;;;28.20;47.60;;;;;;5051311;28;20115;-68
2021/06/02 12:52:08;;;;;;;;;;;28.00;47.80;;;;;;5069865;28;20116;-69
2021/06/02 12:54:35;;;;;;;3.47;1.30;;;27.70;47.80;;;;;;5050737;28;19928;-68
2021/06/02 12:57:01;;;;;;;2.72;1.25;;;27.90;47.30;;;;;;5069790;28;20025;-69
2021/06/02 12:59:32;;;;;;;3.65;1.30;;;28.10;47.60;;;;;;5051073;28;20067;-69
2021/06/02 13:02:01;;;;;;;;;;;28.10;47.10;;;;;;5051181;28;20047;-70
2021/06/02 13:04:28;;;;;;;4.13;1.20;;;28.00;47.40;;;;;;5050684;28;20276;-69
2021/06/02 13:06:56;;;;;;;5.50;1.45;;;28.30;47.60;;;;;;5070188;28;20103;-68
2021/06/02 13:09:22;;;;;;;4.60;1.38;;;28.50;47.60;;;;;;5069114;28;20029;-69
2021/06/02 13:11:53;;;;;;;2.40;1.13;;;28.70;47.70;;;;;;5051070;28;20025;-70
2021/06/02 13:14:30;;;;;;;9.38;2.03;;;28.70;47.40;;;;;;5068295;28;20462;-68
2021/06/02 13:16:56;;;;;;;3.67;1.23;;;28.70;47.80;;;;;;5069576;28;20422;-68
2021/06/02 13:19:38;;;;;;;1.98;1.40;;;27.80;47.80;;;;;;5050457;28;20063;-70
2021/06/02 13:22:05;;;;;;;3.67;1.52;;;27.70;48.30;;;;;;5068901;28;20036;-69
2021/06/02 13:24:38;;;;;;;6.55;1.40;;;28.10;48.40;;;;;;5068578;28;20032;-69
2021/06/02 13:27:05;;;;;;;4.63;1.35;;;28.00;46.80;;;;;;5051236;28;20120;-68
2021/06/02 13:29:31;;;;;;;3.03;0.80;;;28.20;47.40;;;;;;5068423;28;20056;-69